Home > Products > Valid Products > TAF

000
FTUS43 KOAX 010242 AAC
TAFOMA
TAF AMD
KOMA 010242Z 0103/0124 VRB05KT P6SM BKN040
     FM010600 VRB03KT P6SM SCT250
      TEMPO 0109/0112 4SM BR
     FM011600 17006KT P6SM SCT100 BKN200=



000
FTUS43 KOAX 010242 AAC
TAFOMA
TAF AMD
KOMA 010242Z 0103/0124 VRB05KT P6SM BKN040
     FM010600 VRB03KT P6SM SCT250
      TEMPO 0109/0112 4SM BR
     FM011600 17006KT P6SM SCT100 BKN200=



000
FTUS43 KOAX 010059 AAB
TAFOMA
TAF AMD
KOMA 010059Z 0101/0124 VRB05KT P6SM SCT040 SCT250
     FM010600 VRB03KT P6SM SCT250
      TEMPO 0109/0112 4SM BR
     FM011600 17006KT P6SM SCT100 BKN200=



000
FTUS43 KOAX 010059 AAB
TAFOMA
TAF AMD
KOMA 010059Z 0101/0124 VRB05KT P6SM SCT040 SCT250
     FM010600 VRB03KT P6SM SCT250
      TEMPO 0109/0112 4SM BR
     FM011600 17006KT P6SM SCT100 BKN200=



000
FTUS43 KOAX 010041 AAA
TAFLNK
TAF AMD
KLNK 010041Z 0101/0124 36008KT P6SM SCT040 BKN100
     FM010400 VRB04KT P6SM SCT100 SCT250
     FM011600 19006KT P6SM SCT090 BKN200=



000
FTUS43 KOAX 010041 AAA
TAFLNK
TAF AMD
KLNK 010041Z 0101/0124 36008KT P6SM SCT040 BKN100
     FM010400 VRB04KT P6SM SCT100 SCT250
     FM011600 19006KT P6SM SCT090 BKN200=



000
FTUS43 KOAX 010041 AAA
TAFLNK
TAF AMD
KLNK 010041Z 0101/0124 36008KT P6SM SCT040 BKN100
     FM010400 VRB04KT P6SM SCT100 SCT250
     FM011600 19006KT P6SM SCT090 BKN200=



000
FTUS43 KOAX 010041 AAA
TAFLNK
TAF AMD
KLNK 010041Z 0101/0124 36008KT P6SM SCT040 BKN100
     FM010400 VRB04KT P6SM SCT100 SCT250
     FM011600 19006KT P6SM SCT090 BKN200=



000
FTUS43 KOAX 010023 AAA
TAFOMA
TAF AMD
KOMA 010023Z 0100/0124 35006KT P6SM VCTS SCT030CB BKN150
      TEMPO 0100/0102 VRB15G30KT
     FM010200 VRB04KT P6SM SCT040 SCT250
     FM010800 VRB03KT P6SM BKN100
      TEMPO 0109/0112 4SM BR
     FM011600 17006KT P6SM BKN150=



000
FTUS43 KOAX 010023 AAA
TAFOMA
TAF AMD
KOMA 010023Z 0100/0124 35006KT P6SM VCTS SCT030CB BKN150
      TEMPO 0100/0102 VRB15G30KT
     FM010200 VRB04KT P6SM SCT040 SCT250
     FM010800 VRB03KT P6SM BKN100
      TEMPO 0109/0112 4SM BR
     FM011600 17006KT P6SM BKN150=



000
FTUS43 KOAX 312320
TAFOMA
TAF
KOMA 312320Z 0100/0124 35006KT P6SM SCT030 BKN150
      TEMPO 0100/0101 VRB15G30KT 4SM TSRA BKN030CB
     FM010400 VRB04KT P6SM SCT040 BKN100
     FM011000 VRB03KT 5SM BR SCT250
     FM011600 17006KT P6SM BKN150=



000
FTUS43 KOAX 312320
TAFOMA
TAF
KOMA 312320Z 0100/0124 35006KT P6SM SCT030 BKN150
      TEMPO 0100/0101 VRB15G30KT 4SM TSRA BKN030CB
     FM010400 VRB04KT P6SM SCT040 BKN100
     FM011000 VRB03KT 5SM BR SCT250
     FM011600 17006KT P6SM BKN150=



000
FTUS43 KOAX 312320
TAFOFK
TAF
KOFK 312320Z 0100/0124 19008KT P6SM SCT040 BKN150
     FM010200 19006KT P6SM SCT250
     FM010400 VRB04KT P6SM SCT030
     FM011500 16007KT P6SM BKN120=



000
FTUS43 KOAX 312320
TAFLNK
TAF
KLNK 312320Z 0100/0124 30008KT P6SM SCT040 BKN100
      TEMPO 0100/0101 VRB15G30KT 6SM -TSRA BKN040CB
     FM010400 VRB04KT P6SM SCT100
     FM011600 19006KT P6SM SCT090 BKN200=



000
FTUS43 KOAX 312320
TAFOFK
TAF
KOFK 312320Z 0100/0124 19008KT P6SM SCT040 BKN150
     FM010200 19006KT P6SM SCT250
     FM010400 VRB04KT P6SM SCT030
     FM011500 16007KT P6SM BKN120=



000
FTUS43 KOAX 312320
TAFLNK
TAF
KLNK 312320Z 0100/0124 30008KT P6SM SCT040 BKN100
      TEMPO 0100/0101 VRB15G30KT 6SM -TSRA BKN040CB
     FM010400 VRB04KT P6SM SCT100
     FM011600 19006KT P6SM SCT090 BKN200=



000
FTUS43 KOAX 312246 AAA
TAFLNK
TAF AMD
KLNK 312246Z 3123/0118 30006KT P6SM SCT040 BKN100
      TEMPO 3123/0101 VRB15G30KT 6SM -TSRA BKN040CB
     FM010400 VRB04KT P6SM SCT100
     FM011600 19006KT P6SM SCT090 BKN200=



000
FTUS43 KOAX 312246 AAA
TAFLNK
TAF AMD
KLNK 312246Z 3123/0118 30006KT P6SM SCT040 BKN100
      TEMPO 3123/0101 VRB15G30KT 6SM -TSRA BKN040CB
     FM010400 VRB04KT P6SM SCT100
     FM011600 19006KT P6SM SCT090 BKN200=



000
FTUS43 KOAX 312244 AAA
TAFOMA
TAF AMD
KOMA 312244Z 3123/0118 35006KT P6SM SCT030 BKN150
      TEMPO 3123/0101 VRB15G30KT 4SM TSRA BKN030CB
     FM010400 VRB04KT P6SM SCT040 BKN100
     FM011000 VRB03KT 5SM BR SCT250
     FM011600 17006KT P6SM BKN150=



000
FTUS43 KOAX 312244 AAA
TAFOMA
TAF AMD
KOMA 312244Z 3123/0118 35006KT P6SM SCT030 BKN150
      TEMPO 3123/0101 VRB15G30KT 4SM TSRA BKN030CB
     FM010400 VRB04KT P6SM SCT040 BKN100
     FM011000 VRB03KT 5SM BR SCT250
     FM011600 17006KT P6SM BKN150=



000
FTUS43 KOAX 312240 AAA
TAFOFK
TAF AMD
KOFK 312240Z 3123/0118 19008KT P6SM SCT040 BKN150
     FM010100 VRB05KT P6SM SCT250
     FM010400 VRB04KT P6SM SCT030
     FM011500 16007KT P6SM BKN120=



000
FTUS43 KOAX 312240 AAA
TAFOFK
TAF AMD
KOFK 312240Z 3123/0118 19008KT P6SM SCT040 BKN150
     FM010100 VRB05KT P6SM SCT250
     FM010400 VRB04KT P6SM SCT030
     FM011500 16007KT P6SM BKN120=



000
FTUS43 KOAX 312240 AAA
TAFOFK
TAF AMD
KOFK 312240Z 3123/0118 19008KT P6SM SCT040 BKN150
     FM010100 VRB05KT P6SM SCT250
     FM010400 VRB04KT P6SM SCT030
     FM011500 16007KT P6SM BKN120=



000
FTUS43 KOAX 312240 AAA
TAFOFK
TAF AMD
KOFK 312240Z 3123/0118 19008KT P6SM SCT040 BKN150
     FM010100 VRB05KT P6SM SCT250
     FM010400 VRB04KT P6SM SCT030
     FM011500 16007KT P6SM BKN120=



000
FTUS43 KOAX 311720
TAFOFK
TAF
KOFK 311720Z 3118/0118 32005KT P6SM SKC
     FM010300 16005KT P6SM SCT250=



000
FTUS43 KOAX 311720
TAFOFK
TAF
KOFK 311720Z 3118/0118 32005KT P6SM SKC
     FM010300 16005KT P6SM SCT250=



000
FTUS43 KOAX 311720
TAFLNK
TAF
KLNK 311720Z 3118/0118 VRB06KT P6SM SKC
      TEMPO 3122/0101 6SM -TSRA BKN040CB
     FM010500 23003KT P6SM SKC=



000
FTUS43 KOAX 311720
TAFOMA
TAF
KOMA 311720Z 3118/0118 VRB06KT P6SM SKC
      TEMPO 3122/0101 6SM -TSRA BKN040CB
     FM010500 15006KT P6SM SKC=



000
FTUS43 KOAX 311720
TAFLNK
TAF
KLNK 311720Z 3118/0118 VRB06KT P6SM SKC
      TEMPO 3122/0101 6SM -TSRA BKN040CB
     FM010500 23003KT P6SM SKC=



000
FTUS43 KOAX 311720
TAFOMA
TAF
KOMA 311720Z 3118/0118 VRB06KT P6SM SKC
      TEMPO 3122/0101 6SM -TSRA BKN040CB
     FM010500 15006KT P6SM SKC=



000
FTUS43 KOAX 311120
TAFLNK
TAF
KLNK 311120Z 3112/0112 VRB04KT P6SM SCT250
     FM312100 22007KT P6SM SCT040
      TEMPO 3122/0101 6SM -TSRA BKN040CB=



000
FTUS43 KOAX 311120
TAFOMA
TAF
KOMA 311120Z 3112/0112 17011KT P6SM SCT100 SCT250
     FM312000 30006KT P6SM SCT040
      TEMPO 3120/3123 6SM -TSRA BKN040CB=



000
FTUS43 KOAX 311120
TAFLNK
TAF
KLNK 311120Z 3112/0112 VRB04KT P6SM SCT250
     FM312100 22007KT P6SM SCT040
      TEMPO 3122/0101 6SM -TSRA BKN040CB=



000
FTUS43 KOAX 311120
TAFOMA
TAF
KOMA 311120Z 3112/0112 17011KT P6SM SCT100 SCT250
     FM312000 30006KT P6SM SCT040
      TEMPO 3120/3123 6SM -TSRA BKN040CB=



000
FTUS43 KOAX 311120
TAFOFK
TAF
KOFK 311120Z 3112/0112 VRB05KT P6SM SCT080
     FM010600 14004KT P6SM FEW250=



000
FTUS43 KOAX 311120
TAFOFK
TAF
KOFK 311120Z 3112/0112 VRB05KT P6SM SCT080
     FM010600 14004KT P6SM FEW250=



000
FTUS43 KOAX 310855 AAA
TAFOMA
TAF AMD
KOMA 310855Z 3109/0106 17005KT P6SM SCT100 SCT150
      TEMPO 3109/3112 -TSRA OVC050CB
     FM311900 32008KT P6SM SCT040
      TEMPO 3120/3123 6SM -SHRA BKN035=



000
FTUS43 KOAX 310855 AAA
TAFOMA
TAF AMD
KOMA 310855Z 3109/0106 17005KT P6SM SCT100 SCT150
      TEMPO 3109/3112 -TSRA OVC050CB
     FM311900 32008KT P6SM SCT040
      TEMPO 3120/3123 6SM -SHRA BKN035=



000
FTUS43 KOAX 310520
TAFOFK
TAF
KOFK 310520Z 3106/0106 VRB04KT P6SM SCT080
     FM311800 01008KT P6SM SCT100=



000
FTUS43 KOAX 310520
TAFOFK
TAF
KOFK 310520Z 3106/0106 VRB04KT P6SM SCT080
     FM311800 01008KT P6SM SCT100=



000
FTUS43 KOAX 310520
TAFLNK
TAF
KLNK 310520Z 3106/0106 16004KT P6SM SCT250
     FM312100 28007KT P6SM SCT040
      TEMPO 3121/3124 6SM -SHRA BKN035=



000
FTUS43 KOAX 310520
TAFLNK
TAF
KLNK 310520Z 3106/0106 16004KT P6SM SCT250
     FM312100 28007KT P6SM SCT040
      TEMPO 3121/3124 6SM -SHRA BKN035=



000
FTUS43 KOAX 310520
TAFOMA
TAF
KOMA 310520Z 3106/0106 17005KT P6SM SCT100 SCT150
     FM311900 32008KT P6SM SCT040
      TEMPO 3120/3123 6SM -SHRA BKN035=



000
FTUS43 KOAX 310520
TAFOFK
TAF
KOFK 310520Z 3106/0106 VRB04KT P6SM SCT080
     FM311800 01008KT P6SM SCT100=



000
FTUS43 KOAX 310520
TAFOFK
TAF
KOFK 310520Z 3106/0106 VRB04KT P6SM SCT080
     FM311800 01008KT P6SM SCT100=



000
FTUS43 KOAX 310520
TAFOMA
TAF
KOMA 310520Z 3106/0106 17005KT P6SM SCT100 SCT150
     FM311900 32008KT P6SM SCT040
      TEMPO 3120/3123 6SM -SHRA BKN035=



000
FTUS43 KOAX 310520
TAFLNK
TAF
KLNK 310520Z 3106/0106 16004KT P6SM SCT250
     FM312100 28007KT P6SM SCT040
      TEMPO 3121/3124 6SM -SHRA BKN035=



000
FTUS43 KOAX 310520
TAFOMA
TAF
KOMA 310520Z 3106/0106 17005KT P6SM SCT100 SCT150
     FM311900 32008KT P6SM SCT040
      TEMPO 3120/3123 6SM -SHRA BKN035=



000
FTUS43 KOAX 310520
TAFOMA
TAF
KOMA 310520Z 3106/0106 17005KT P6SM SCT100 SCT150
     FM311900 32008KT P6SM SCT040
      TEMPO 3120/3123 6SM -SHRA BKN035=



000
FTUS43 KOAX 310520
TAFLNK
TAF
KLNK 310520Z 3106/0106 16004KT P6SM SCT250
     FM312100 28007KT P6SM SCT040
      TEMPO 3121/3124 6SM -SHRA BKN035=



000
FTUS43 KOAX 302320
TAFOFK
TAF
KOFK 302320Z 3100/3124 VRB04KT P6SM SCT120
     FM311300 01008KT P6SM SCT100=



000
FTUS43 KOAX 302320
TAFOMA
TAF
KOMA 302320Z 3100/3124 VRB04KT P6SM SCT150=



000
FTUS43 KOAX 302320
TAFLNK
TAF
KLNK 302320Z 3100/3124 22006KT P6SM SCT150
     FM311900 28005KT P6SM SCT040=



000
FTUS43 KOAX 301726
TAFOMA
TAF
KOMA 301726Z 3018/3118 24008KT P6SM SCT100
     FM310600 17004KT P6SM BKN100=



000
FTUS43 KOAX 301726
TAFLNK
TAF
KLNK 301726Z 3018/3118 22011KT P6SM SCT120
     FM310000 VRB05KT P6SM SCT100
     FM311000 28005KT P6SM BKN100=



000
FTUS43 KOAX 301726
TAFOFK
TAF
KOFK 301726Z 3018/3118 25011KT P6SM SCT120
     FM310000 19005KT P6SM BKN100
     FM310600 VRB03KT P6SM SCT100=



000
FTUS43 KOAX 301120
TAFLNK
TAF
KLNK 301120Z 3012/3112 VRB05KT P6SM FEW120
     FM301500 24007KT P6SM SCT250
     FM301800 22010KT P6SM SCT120
     FM310700 20005KT P6SM BKN100=



000
FTUS43 KOAX 301120
TAFOFK
TAF
KOFK 301120Z 3012/3112 24007KT P6SM FEW100
     FM301800 24012KT P6SM SCT120
     FM310000 19005KT P6SM BKN090=



000
FTUS43 KOAX 301120
TAFLNK
TAF
KLNK 301120Z 3012/3112 VRB05KT P6SM FEW120
     FM301500 24007KT P6SM SCT250
     FM301800 22010KT P6SM SCT120
     FM310700 20005KT P6SM BKN100=



000
FTUS43 KOAX 301120
TAFOFK
TAF
KOFK 301120Z 3012/3112 24007KT P6SM FEW100
     FM301800 24012KT P6SM SCT120
     FM310000 19005KT P6SM BKN090=



000
FTUS43 KOAX 301120
TAFOMA
TAF
KOMA 301120Z 3012/3112 18005KT P6SM SKC
     FM301500 25007KT P6SM FEW100
     FM301800 24010KT P6SM SCT100
     FM310600 16005KT P6SM BKN100=



000
FTUS43 KOAX 301120
TAFOMA
TAF
KOMA 301120Z 3012/3112 18005KT P6SM SKC
     FM301500 25007KT P6SM FEW100
     FM301800 24010KT P6SM SCT100
     FM310600 16005KT P6SM BKN100=



000
FTUS43 KOAX 300520
TAFOFK
TAF
KOFK 300520Z 3006/3106 24007KT P6SM SKC
     FM301800 24012KT P6SM SCT120=



000
FTUS43 KOAX 300520
TAFOMA
TAF
KOMA 300520Z 3006/3106 24005KT P6SM SKC
     FM301800 24012KT P6SM SCT120=



000
FTUS43 KOAX 300520
TAFLNK
TAF
KLNK 300520Z 3006/3106 24006KT P6SM SKC
     FM301800 24012KT P6SM SCT120=



000
FTUS43 KOAX 300520
TAFOMA
TAF
KOMA 300520Z 3006/3106 24005KT P6SM SKC
     FM301800 24012KT P6SM SCT120=



000
FTUS43 KOAX 300520
TAFOFK
TAF
KOFK 300520Z 3006/3106 24007KT P6SM SKC
     FM301800 24012KT P6SM SCT120=



000
FTUS43 KOAX 300520
TAFLNK
TAF
KLNK 300520Z 3006/3106 24006KT P6SM SKC
     FM301800 24012KT P6SM SCT120=



000
FTUS43 KOAX 300520
TAFLNK
TAF
KLNK 300520Z 3006/3106 24006KT P6SM SKC
     FM301800 24012KT P6SM SCT120=



000
FTUS43 KOAX 300520
TAFOMA
TAF
KOMA 300520Z 3006/3106 24005KT P6SM SKC
     FM301800 24012KT P6SM SCT120=



000
FTUS43 KOAX 300520
TAFLNK
TAF
KLNK 300520Z 3006/3106 24006KT P6SM SKC
     FM301800 24012KT P6SM SCT120=



000
FTUS43 KOAX 300520
TAFOFK
TAF
KOFK 300520Z 3006/3106 24007KT P6SM SKC
     FM301800 24012KT P6SM SCT120=



000
FTUS43 KOAX 300520
TAFOMA
TAF
KOMA 300520Z 3006/3106 24005KT P6SM SKC
     FM301800 24012KT P6SM SCT120=



000
FTUS43 KOAX 300520
TAFOFK
TAF
KOFK 300520Z 3006/3106 24007KT P6SM SKC
     FM301800 24012KT P6SM SCT120=



000
FTUS43 KOAX 292320
TAFLNK
TAF
KLNK 292320Z 3000/3024 36006KT P6SM BKN100
     FM300400 24006KT P6SM SKC=



000
FTUS43 KOAX 292320
TAFOFK
TAF
KOFK 292320Z 3000/3024 24006KT P6SM SKC=



000
FTUS43 KOAX 292320
TAFLNK
TAF
KLNK 292320Z 3000/3024 36006KT P6SM BKN100
     FM300400 24006KT P6SM SKC=



000
FTUS43 KOAX 292320
TAFOFK
TAF
KOFK 292320Z 3000/3024 24006KT P6SM SKC=



000
FTUS43 KOAX 292320
TAFOMA
TAF
KOMA 292320Z 3000/3024 30006KT P6SM BKN100
     FM300400 24006KT P6SM SKC=



000
FTUS43 KOAX 292320
TAFOMA
TAF
KOMA 292320Z 3000/3024 30006KT P6SM BKN100
     FM300400 24006KT P6SM SKC=



000
FTUS43 KOAX 291720
TAFOFK
TAF
KOFK 291720Z 2918/3018 27011KT P6SM BKN150
     FM300000 23005KT P6SM FEW120=



000
FTUS43 KOAX 291720
TAFOMA
TAF
KOMA 291720Z 2918/3018 32010KT P6SM SCT150 SCT250
     FM300000 VRB04KT P6SM SCT120=



000
FTUS43 KOAX 291720
TAFLNK
TAF
KLNK 291720Z 2918/3018 VRB05KT P6SM SCT150 BKN250
     FM300500 22007KT P6SM SCT120=



000
FTUS43 KOAX 291720
TAFOMA
TAF
KOMA 291720Z 2918/3018 32010KT P6SM SCT150 SCT250
     FM300000 VRB04KT P6SM SCT120=



000
FTUS43 KOAX 291720
TAFOFK
TAF
KOFK 291720Z 2918/3018 27011KT P6SM BKN150
     FM300000 23005KT P6SM FEW120=



000
FTUS43 KOAX 291720
TAFOFK
TAF
KOFK 291720Z 2918/3018 27011KT P6SM BKN150
     FM300000 23005KT P6SM FEW120=



000
FTUS43 KOAX 291720
TAFLNK
TAF
KLNK 291720Z 2918/3018 VRB05KT P6SM SCT150 BKN250
     FM300500 22007KT P6SM SCT120=



000
FTUS43 KOAX 291720
TAFLNK
TAF
KLNK 291720Z 2918/3018 VRB05KT P6SM SCT150 BKN250
     FM300500 22007KT P6SM SCT120=



000
FTUS43 KOAX 291720
TAFOFK
TAF
KOFK 291720Z 2918/3018 27011KT P6SM BKN150
     FM300000 23005KT P6SM FEW120=



000
FTUS43 KOAX 291720
TAFOMA
TAF
KOMA 291720Z 2918/3018 32010KT P6SM SCT150 SCT250
     FM300000 VRB04KT P6SM SCT120=



000
FTUS43 KOAX 291720
TAFOMA
TAF
KOMA 291720Z 2918/3018 32010KT P6SM SCT150 SCT250
     FM300000 VRB04KT P6SM SCT120=



000
FTUS43 KOAX 291720
TAFLNK
TAF
KLNK 291720Z 2918/3018 VRB05KT P6SM SCT150 BKN250
     FM300500 22007KT P6SM SCT120=



000
FTUS43 KOAX 291120
TAFLNK
TAF
KLNK 291120Z 2912/3012 34007KT P6SM SCT250
     FM291800 01007KT P6SM SCT150 BKN250
     FM300000 VRB04KT P6SM SCT120=



000
FTUS43 KOAX 291120
TAFOMA
TAF
KOMA 291120Z 2912/3012 36007KT P6SM SCT250
     FM291800 33007KT P6SM SCT150 BKN250
     FM300000 VRB04KT P6SM SCT120=



000
FTUS43 KOAX 291120
TAFOMA
TAF
KOMA 291120Z 2912/3012 36007KT P6SM SCT250
     FM291800 33007KT P6SM SCT150 BKN250
     FM300000 VRB04KT P6SM SCT120=



000
FTUS43 KOAX 291120
TAFOFK
TAF
KOFK 291120Z 2912/3012 30005KT P6SM SCT150
     FM291600 30008KT P6SM BKN150
     FM292100 26008KT P6SM SCT150
     FM300000 21005KT P6SM FEW120=



000
FTUS43 KOAX 291120
TAFLNK
TAF
KLNK 291120Z 2912/3012 34007KT P6SM SCT250
     FM291800 01007KT P6SM SCT150 BKN250
     FM300000 VRB04KT P6SM SCT120=



000
FTUS43 KOAX 291120
TAFOMA
TAF
KOMA 291120Z 2912/3012 36007KT P6SM SCT250
     FM291800 33007KT P6SM SCT150 BKN250
     FM300000 VRB04KT P6SM SCT120=



000
FTUS43 KOAX 291120
TAFLNK
TAF
KLNK 291120Z 2912/3012 34007KT P6SM SCT250
     FM291800 01007KT P6SM SCT150 BKN250
     FM300000 VRB04KT P6SM SCT120=



000
FTUS43 KOAX 291120
TAFOFK
TAF
KOFK 291120Z 2912/3012 30005KT P6SM SCT150
     FM291600 30008KT P6SM BKN150
     FM292100 26008KT P6SM SCT150
     FM300000 21005KT P6SM FEW120=



000
FTUS43 KOAX 291120
TAFOFK
TAF
KOFK 291120Z 2912/3012 30005KT P6SM SCT150
     FM291600 30008KT P6SM BKN150
     FM292100 26008KT P6SM SCT150
     FM300000 21005KT P6SM FEW120=



000
FTUS43 KOAX 291120
TAFOMA
TAF
KOMA 291120Z 2912/3012 36007KT P6SM SCT250
     FM291800 33007KT P6SM SCT150 BKN250
     FM300000 VRB04KT P6SM SCT120=



000
FTUS43 KOAX 291120
TAFLNK
TAF
KLNK 291120Z 2912/3012 34007KT P6SM SCT250
     FM291800 01007KT P6SM SCT150 BKN250
     FM300000 VRB04KT P6SM SCT120=



000
FTUS43 KOAX 291120
TAFOFK
TAF
KOFK 291120Z 2912/3012 30005KT P6SM SCT150
     FM291600 30008KT P6SM BKN150
     FM292100 26008KT P6SM SCT150
     FM300000 21005KT P6SM FEW120=



000
FTUS43 KOAX 290520
TAFOMA
TAF
KOMA 290520Z 2906/3006 01006KT P6SM BKN050
     FM290800 02006KT P6SM SCT250
     FM291800 33007KT P6SM SCT150 BKN250=



000
FTUS43 KOAX 290520
TAFOFK
TAF
KOFK 290520Z 2906/3006 32004KT P6SM SCT250
     FM291500 32008KT P6SM BKN150
     FM292100 26008KT P6SM SCT100=



000
FTUS43 KOAX 290520
TAFLNK
TAF
KLNK 290520Z 2906/3006 02004KT P6SM BKN045
     FM290800 33006KT P6SM SCT250
     FM291800 36006KT P6SM SCT150 BKN250=



000
FTUS43 KOAX 290520
TAFOMA
TAF
KOMA 290520Z 2906/3006 01006KT P6SM BKN050
     FM290800 02006KT P6SM SCT250
     FM291800 33007KT P6SM SCT150 BKN250=



    US Dept of Commerce
    National Oceanic and Atmospheric Administration
    National Weather Service
    1325 East West Highway
    Silver Spring, MD 20910
    Page Author: NWS Internet Services Team
Disclaimer
Information Quality
Credits
Glossary
Privacy Policy
Freedom of Information Act (FOIA)
About Us
Career Opportunities